Latest Coastal Weather Observations for Hervey Bay

IDQ60701

Issued at 8:22 am EST Wednesday 28 September 2016 (issued every 10 minutes, with the page automatically refreshed every 10 minutes)

About coastal observations | Map of coastal stations | Coastal observations for QLD | Marine services | Other Formats
Station Details ID: 040405 Name: HERVEY BAY AIRPORT Lat: -25.32 Lon: 152.88 Height: 12.98 m
Data from the previous 72 hours. | See also: Recent months at Hervey Bay
Date/Time
EST
Temp
°C
Wind Pressure Rain since
9am
mm
Weather Cloud Vis
km
Sea
Height
m
Swell
Dir  Spd
kts
Gust
kts
hPa Trend Height
m
Period
s
Dir
28/08:00am 20.4 WSW 5 6 1014.8 - 0.0 - - 10 - - - -
28/07:30am 18.3 SW 4 5 1014.6 - 0.0 - - 10 - - - -
28/07:00am 16.4 SSW 2 3 1014.4 - 0.0 - - 10 - - - -
28/06:30am 12.6 SW 3 5 1013.9 - 0.0 - - 10 - - - -
28/06:00am 8.8 CALM 0 0 1013.5 - 0.0 - - 10 - - - -
28/05:30am 8.0 CALM 0 0 1013.1 - 0.0 - - 10 - - - -
28/05:00am 8.2 CALM 0 0 1012.9 - 0.0 - - 10 - - - -
28/04:30am 8.6 CALM 0 0 1012.6 - 0.0 - - 10 - - - -
28/04:00am 8.8 CALM 0 0 1012.5 - 0.0 - - 10 - - - -
28/03:30am 9.1 CALM 0 0 1012.3 - 0.0 - - 10 - - - -
28/03:00am 9.8 SSW 3 4 1012.2 - 0.0 - - 10 - - - -
28/02:30am 10.2 SW 4 5 1012.2 - 0.0 - - 10 - - - -
28/02:00am 10.4 WSW 4 6 1012.5 - 0.0 - - 10 - - - -
28/01:30am 10.2 WSW 5 6 1012.7 - 0.0 - - 10 - - - -
28/01:00am 10.5 W 4 4 1012.9 - 0.0 - - 10 - - - -
28/12:30am 10.8 CALM 0 0 1013.2 - 0.0 - - 10 - - - -
28/12:00am 11.4 W 4 4 1013.5 - 0.0 - - 10 - - - -
 
Date/Time
EST
Temp
°C
Wind Pressure Rain since
9am
mm
Weather Cloud Vis
km
Sea
Height
m
Swell
Dir  Spd
kts
Gust
kts
hPa Trend Height
m
Period
s
Dir
27/11:30pm 12.3 W 5 6 1013.5 - 0.0 - - 10 - - - -
27/11:00pm 12.7 W 5 6 1013.7 - 0.0 - - 10 - - - -
27/10:30pm 12.8 W 5 5 1013.8 - 0.0 - - 10 - - - -
27/10:00pm 13.5 W 3 4 1013.7 - 0.0 - - 10 - - - -
27/09:30pm 14.5 W 4 5 1014.0 - 0.0 - - 10 - - - -
27/09:00pm 15.6 W 4 6 1014.0 - 0.0 - Mostly cloudy 10 - - - -
27/08:30pm 14.9 W 4 5 1014.3 - 0.0 - - 10 - - - -
27/08:00pm 14.6 CALM 0 0 1013.9 - 0.0 - - 10 - - - -
27/07:30pm 14.8 NW 2 5 1014.0 - 0.0 - - 10 - - - -
27/07:00pm 15.0 CALM 0 0 1013.6 - 0.0 - - 10 - - - -
27/06:30pm 15.9 CALM 0 0 1013.2 - 0.0 - - 10 - - - -
27/06:00pm 17.8 ESE 3 4 1012.9 - 0.0 - Partly cloudy 10 - - - -
27/05:30pm 20.4 CALM 0 0 1012.3 - 0.0 - - 10 - - - -
27/05:00pm 22.7 WSW 3 4 1011.9 - 0.0 - - 10 - - - -
27/04:30pm 23.8 SW 6 8 1012.2 - 0.0 - - 10 - - - -
27/04:00pm 24.4 WSW 4 7 1011.4 - 0.0 - - 10 - - - -
27/03:30pm 24.9 WSW 7 11 1011.5 - 0.0 - - 10 - - - -
27/03:00pm 25.4 SW 9 15 1011.8 - 0.0 - Partly cloudy 10 - - - -
27/02:30pm 25.6 SW 7 11 1011.8 - 0.0 - - 10 - - - -
27/02:00pm 25.8 SW 10 14 1011.7 - 0.0 - - 10 - - - -
27/01:30pm 26.8 SW 11 18 1012.1 - 0.0 - - 10 - - - -
27/01:00pm 26.9 SW 9 14 1012.4 - 0.0 - - 10 - - - -
27/12:30pm 26.0 ESE 8 15 1012.8 - 0.0 - - 10 - - - -
27/12:00pm 25.1 E 10 12 1013.4 - 0.0 - - 10 - - - -
27/11:30am 24.1 E 10 16 1013.8 - 0.0 - - 10 - - - -
27/11:00am 25.4 SSW 8 13 1014.2 - 0.0 - - 10 - - - -
27/10:30am 23.8 SSW 10 15 1014.6 - 0.0 - - 10 - - - -
27/10:00am 23.2 SW 7 12 1014.7 - 0.0 - - 10 - - - -
27/09:30am 22.0 SW 10 17 1015.4 - 0.0 - - 10 - - - -
27/09:00am 20.9 WSW 9 13 1015.3 - 0.2 - Mostly cloudy 10 - - - -
27/08:30am 19.6 WSW 6 9 1015.3 - 0.2 - - 10 - - - -
27/08:00am 20.0 WSW 9 13 1014.9 - 0.2 - - 10 - - - -
27/07:30am 20.4 WSW 7 12 1014.6 - 0.2 - - 10 - - - -
27/07:00am 18.6 WSW 5 7 1014.0 - 0.2 - - 10 - - - -
27/06:30am 16.8 WSW 3 5 1014.0 - 0.2 - - 10 - - - -
27/06:00am 15.4 SW 4 5 1013.7 - 0.2 - Cloudy 10 - - - -
27/05:30am 16.0 SW 3 6 1013.1 - 0.2 - - 10 - - - -
27/05:00am 16.1 SW 5 7 1013.3 - 0.2 - - 10 - - - -
27/04:30am 15.5 WSW 4 5 1012.6 - 0.2 - - 10 - - - -
27/04:00am 15.3 SW 5 6 1012.5 - 0.2 - - 10 - - - -
27/03:30am 15.4 WSW 3 5 1012.0 - 0.2 - - 10 - - - -
27/03:00am 15.6 SW 5 6 1012.0 - 0.2 - Mostly clear 10 - - - -
27/02:30am 15.4 CALM 0 0 1011.8 - 0.2 - - 10 - - - -
27/02:00am 15.2 SW 4 5 1012.1 - 0.2 - - 10 - - - -
27/01:30am 15.0 SW 3 4 1012.0 - 0.2 - - 10 - - - -
27/01:00am 15.5 CALM 0 3 1012.1 - 0.2 - - 10 - - - -
27/12:30am 16.1 WSW 3 4 1012.9 - 0.2 - - 10 - - - -
27/12:00am 16.7 WSW 2 3 1013.1 - 0.2 - - 10 - - - -
 
Date/Time
EST
Temp
°C
Wind Pressure Rain since
9am
mm
Weather Cloud Vis
km
Sea
Height
m
Swell
Dir  Spd
kts
Gust
kts
hPa Trend Height
m
Period
s
Dir
26/11:30pm 17.7 WSW 3 4 1013.3 - 0.2 - - 10 - - - -
26/11:00pm 19.2 WNW 4 5 1013.6 - 0.2 - - 10 - - - -
26/10:30pm 20.6 NW 6 11 1013.5 - 0.2 - - 10 - - - -
26/10:00pm 21.0 NNW 7 11 1013.2 - 0.2 - - 10 - - - -
26/09:30pm 20.9 N 7 9 1013.1 - 0.2 - - 10 - - - -
26/09:00pm 20.7 N 5 8 1012.8 - 0.2 - Partly cloudy 10 - - - -
26/08:30pm 20.1 N 5 6 1012.6 - 0.2 - - 10 - - - -
26/08:00pm 20.3 NNE 5 7 1012.2 - 0.2 - - 10 - - - -
26/07:30pm 20.9 NE 7 9 1011.9 - 0.2 - - 10 - - - -
26/07:00pm 21.3 ENE 6 10 1011.9 - 0.2 - - 10 - - - -
26/06:30pm 21.5 NNE 6 9 1011.6 - 0.2 - - 10 - - - -
26/06:00pm 21.3 NNE 6 8 1011.1 - 0.2 - - 10 - - - -
26/05:30pm 22.6 NNE 6 9 1010.7 - 0.2 - - 10 - - - -
26/05:00pm 23.4 N 8 11 1010.5 - 0.2 - - 10 - - - -
26/04:30pm 24.1 N 8 12 1010.0 - 0.2 - - 10 - - - -
26/04:00pm 24.6 NNE 8 11 1009.9 - 0.2 - - 10 - - - -
26/03:30pm 25.5 ENE 9 14 1009.8 - 0.2 - - 10 - - - -
26/03:00pm 25.6 NE 7 11 1009.7 - 0.2 - - 10 - - - -
26/02:30pm 25.6 NE 8 12 1009.8 - 0.2 - - 10 - - - -
26/02:00pm 25.3 N 10 13 1010.1 - 0.2 - - 10 - - - -
26/01:30pm 25.4 NNE 8 13 1010.5 - 0.2 - - 10 - - - -
26/01:00pm 26.0 ENE 8 12 1011.0 - 0.2 - - 10 - - - -
26/12:30pm 25.6 SE 7 14 1011.4 - 0.2 - - 10 - - - -
26/12:00pm 25.4 ESE 6 10 1011.9 - 0.2 - - 10 - - - -
26/11:30am 25.4 SSE 6 9 1012.6 - 0.2 - - 10 - - - -
26/11:00am 25.0 S 3 8 1013.0 - 0.2 - - 10 - - - -
26/10:30am 24.5 SSW 7 11 1013.5 - 0.2 - - 10 - - - -
26/10:00am 23.4 S 9 14 1013.7 - 0.2 - - 10 - - - -
26/09:30am 22.6 SSW 10 14 1013.5 - 0.0 - - 10 - - - -
26/09:00am 22.4 SW 11 16 1013.8 - 0.4 - - 10 - - - -
26/08:30am 21.3 SSW 8 14 1013.9 - 0.4 - - 10 - - - -
26/08:00am 20.1 SW 6 8 1013.7 - 0.4 - - 10 - - - -
26/07:30am 18.4 WSW 5 7 1013.7 - 0.4 - - 10 - - - -
26/07:00am 16.3 WSW 2 4 1013.5 - 0.4 - - 10 - - - -
26/06:30am 13.3 CALM 0 0 1013.0 - 0.4 - - 10 - - - -
26/06:00am 10.9 S 1 4 1012.4 - 0.4 - - 10 - - - -
26/05:30am 10.4 S 4 5 1012.0 - 0.4 - - 10 - - - -
26/05:00am 10.6 SSW 3 4 1011.7 - 0.4 - - 10 - - - -
26/04:30am 11.1 SSW 5 5 1011.4 - 0.4 - - 10 - - - -
26/04:00am 11.0 CALM 0 0 1011.2 - 0.4 - - 10 - - - -
26/03:30am 11.6 CALM 0 0 1010.8 - 0.4 - - 10 - - - -
26/03:00am 11.9 CALM 0 1 1010.7 - 0.4 - - 10 - - - -
26/02:30am 13.0 NNE 4 5 1010.6 - 0.4 - - 10 - - - -
26/02:00am 13.9 SW 5 6 1010.5 - 0.4 - - 10 - - - -
26/01:30am 13.2 SW 3 4 1010.6 - 0.4 - - 10 - - - -
26/01:00am 13.9 SW 1 3 1010.7 - 0.4 - - 10 - - - -
26/12:30am 14.2 SW 4 5 1010.6 - 0.4 - - 10 - - - -
26/12:00am 15.2 CALM 0 0 1010.8 - 0.4 - - 10 - - - -
 
Date/Time
EST
Temp
°C
Wind Pressure Rain since
9am
mm
Weather Cloud Vis
km
Sea
Height
m
Swell
Dir  Spd
kts
Gust
kts
hPa Trend Height
m
Period
s
Dir
25/11:30pm 15.9 NW 1 3 1010.9 - 0.4 - - 10 - - - -
25/11:00pm 16.4 CALM 0 0 1010.7 - 0.4 - - 10 - - - -
25/10:30pm 18.0 CALM 0 3 1010.5 - 0.4 - - 10 - - - -
25/10:00pm 19.6 SW 5 9 1010.4 - 0.4 - - 10 - - - -
25/09:54pm 19.5 SW 6 10 1010.4 - 0.4 - - 10 - - - -
25/09:30pm 18.4 CALM 0 0 1010.3 - 0.4 - - 0.6 - - - -
25/09:00pm 19.1 SSW 1 3 1009.8 - 0.4 - - 5 - - - -
25/08:30pm 20.4 SSW 3 4 1009.3 - 0.4 - - 5 - - - -
25/08:16pm 21.5 SW 3 4 1009.1 - 0.4 - - 5 - - - -
25/08:00pm 22.1 WNW 3 6 1009.0 - 0.4 - - 7 - - - -
25/07:30pm 22.6 N 6 9 1008.3 - 0.4 - - 9 - - - -
25/07:00pm 22.8 N 8 14 1007.9 - 0.4 - Partly cloudy 10 - - - -
25/06:46pm 22.9 N 8 12 1007.7 - 0.4 - Partly cloudy 10 - - - -
25/06:30pm 23.0 NNW 8 12 1007.5 - 0.4 - Partly cloudy 10 - - - -
25/06:04pm 22.9 N 6 11 1007.2 - 0.4 - Partly cloudy 10 - - - -
25/06:00pm 22.9 N 7 11 1007.2 - 0.4 - Partly cloudy 10 - - - -
25/05:30pm 23.3 N 8 12 1006.7 - 0.4 - - 10 - - - -
25/05:11pm 23.6 N 9 11 1006.3 - 0.4 - Partly cloudy 10 - - - -
25/05:00pm 23.8 N 8 12 1006.2 - 0.4 - Partly cloudy 10 - - - -
25/04:30pm 23.9 NNW 7 10 1006.0 - 0.4 - Cloudy 10 - - - -
25/04:15pm 24.5 NNW 7 11 1006.0 - 0.4 - Partly cloudy 10 - - - -
25/04:00pm 25.0 NNW 7 11 1006.0 - 0.4 - Partly cloudy 10 - - - -
25/03:30pm 23.9 NNW 12 22 1005.5 - 0.4 - Partly cloudy 10 - - - -
25/03:13pm 24.4 NNW 15 25 1005.1 - 0.4 - Partly cloudy 10 - - - -
25/03:00pm 24.7 NNW 17 26 1005.3 - 0.4 Recent precip. Mostly cloudy 10 - - - -
25/02:30pm 23.3 NNW 12 18 1005.6 - 0.4 - Partly cloudy 10 - - - -
25/02:26pm 23.5 N 12 18 1005.4 - 0.4 - Partly cloudy 10 - - - -
25/02:08pm 23.2 N 13 19 1005.3 - 0.2 - Partly cloudy 5 - - - -
25/02:00pm 24.0 N 14 21 1005.8 - 0.0 - Partly cloudy 10 - - - -
25/01:30pm 25.8 NNW 15 23 1006.2 - 0.0 - Partly cloudy 10 - - - -
25/01:00pm 26.1 N 12 19 1006.6 - 0.0 - Partly cloudy 10 - - - -
25/12:30pm 26.4 N 12 18 1006.7 - 0.0 - Partly cloudy 10 - - - -
25/12:00pm 26.8 N 10 15 1007.6 - 0.0 - Mostly clear 10 - - - -
25/11:30am 25.7 N 8 12 1008.2 - 0.0 - Partly cloudy 10 - - - -
25/11:00am 26.5 N 9 13 1008.5 - 0.0 - Partly cloudy 10 - - - -
25/10:30am 27.3 W 5 9 1008.6 - 0.0 - Partly cloudy 10 - - - -
25/10:00am 26.3 WSW 6 10 1009.3 - 0.0 - Partly cloudy 10 - - - -
25/09:30am 26.5 W 9 14 1009.8 - 0.0 - Partly cloudy 10 - - - -
25/09:00am 25.6 W 8 13 1009.8 - 0.0 - Mostly cloudy 10 - - - -
25/08:30am 23.9 W 7 9 1010.3 - 0.0 - Cloudy 10 - - - -

Other Formats:

Comma delimited format used in spreadsheet applications
http://www.bom.gov.au/fwo/IDQ60701/IDQ60701.95565.axf

JavaScript Object Notation format (JSON) in row-major order
http://www.bom.gov.au/fwo/IDQ60701/IDQ60701.95565.json